Time;durP1;ratioP1;P1;durP2;ratioP2;P2;SDS_P1;SDS_P2;PMS_P1;PMS_P2;Temp;Humidity;BMP_temperature;BMP_pressure;BME280_temperature;BME280_humidity;BME280_pressure;Samples;Min_cycle;Max_cycle;Signal;HPM_P1;HPM_P2
2022/05/25 00:02:01;;;;;;;;;1.00;1.00;;;;;15.18;56.12;101098.31;5080140;28;45254;-50
2022/05/25 00:04:27;;;;;;;;;2.00;2.00;;;;;15.17;56.32;101094.81;5079913;28;45166;-50
2022/05/25 00:06:53;;;;;;;;;1.00;1.00;;;;;15.15;55.94;101096.78;5079861;28;45245;-51
2022/05/25 00:09:19;;;;;;;;;2.67;0.00;;;;;15.15;56.63;101096.78;5079860;28;46397;-48
2022/05/25 00:11:45;;;;;;;;;3.33;2.00;;;;;15.15;56.65;101096.78;5079611;28;45761;-53
2022/05/25 00:14:10;;;;;;;;;0.00;0.00;;;;;15.14;56.41;101100.50;5079713;27;45346;-50
2022/05/25 00:16:36;;;;;;;;;0.00;0.00;;;;;15.09;56.58;101085.94;5080002;27;45400;-52
2022/05/25 00:21:46;;;;;;;;;1.00;1.00;;;;;15.08;56.94;101087.75;5079379;28;45368;-48
2022/05/25 00:24:11;;;;;;;;;2.67;2.00;;;;;15.07;57.13;101085.25;5079835;27;45318;-52
2022/05/25 00:26:36;;;;;;;;;1.00;1.00;;;;;15.05;56.70;101090.78;5080620;28;45328;-52
2022/05/25 00:29:03;;;;;;;;;1.67;1.00;;;;;15.03;56.72;101091.94;5080395;27;46339;-50
2022/05/25 00:31:30;;;;;;;;;2.00;2.00;;;;;14.98;56.55;101087.09;5079157;28;45424;-53
2022/05/25 00:33:56;;;;;;;;;1.00;1.00;;;;;14.94;56.76;101085.75;5079238;28;45290;-48
2022/05/25 00:36:22;;;;;;;;;1.00;1.00;;;;;14.94;57.38;101093.78;5079711;28;45296;-48
2022/05/25 00:38:48;;;;;;;;;1.00;1.00;;;;;14.88;57.24;101084.56;5079397;28;45511;-51
2022/05/25 00:41:13;;;;;;;;;0.00;0.00;;;;;14.90;57.47;101097.78;5079802;27;45304;-52
2022/05/25 00:43:39;;;;;;;;;1.00;1.00;;;;;14.90;57.49;101100.47;5079749;27;45357;-50
2022/05/25 00:46:08;;;;;;;;;1.00;1.00;;;;;14.87;57.42;101101.63;5080153;28;45585;-48
2022/05/25 00:48:57;;;;;;;;;2.00;1.00;;;;;14.87;57.41;101108.81;5079166;28;45378;-50
2022/05/25 00:51:51;;;;;;;;;1.00;1.00;;;;;14.85;57.51;101109.00;5078859;27;45531;-48
2022/05/25 00:54:35;;;;;;;;;1.00;1.00;;;;;14.81;57.42;101114.88;5077424;27;45369;-51
2022/05/25 00:57:07;;;;;;;;;1.00;1.00;;;;;14.82;58.04;101116.53;5079308;27;45172;-47
2022/05/25 00:59:40;;;;;;;;;1.00;1.00;;;;;14.82;57.95;101113.84;5078850;28;47081;-48
2022/05/25 01:02:05;;;;;;;;;1.00;1.00;;;;;14.81;57.98;101114.88;5078478;28;45338;-53
2022/05/25 01:04:31;;;;;;;;;1.67;1.67;;;;;14.80;58.44;101113.19;5079166;28;45510;-50
2022/05/25 01:07:23;;;;;;;;;1.00;1.00;;;;;14.78;58.37;101110.66;5079360;27;45293;-51
2022/05/25 01:10:01;;;;;;;;;1.00;1.00;;;;;14.78;58.19;101124.06;5078551;27;46348;-49
2022/05/25 01:12:54;;;;;;;;;1.00;1.00;;;;;14.76;58.19;101126.06;5077874;28;45454;-48
2022/05/25 01:15:31;;;;;;;;;1.00;1.00;;;;;14.75;58.36;101131.56;5078551;27;45345;-47
2022/05/25 01:18:21;;;;;;;;;0.00;0.00;;;;;14.71;58.41;101125.75;5078437;27;45573;-51
2022/05/25 01:20:58;;;;;;;;;1.00;1.00;;;;;14.70;58.48;101130.22;5078301;28;45978;-52
2022/05/25 01:23:45;;;;;;;;;1.00;1.00;;;;;14.68;58.20;101128.72;5078320;28;45340;-48
2022/05/25 01:26:28;;;;;;;;;1.33;1.00;;;;;14.66;58.72;101130.72;5078412;28;45366;-49
2022/05/25 01:29:09;;;;;;;;;1.67;1.00;;;;;14.64;58.24;101130.91;5078653;28;45497;-49
2022/05/25 01:32:11;;;;;;;;;2.00;2.00;;;;;14.63;58.73;101134.59;5078170;28;46100;-51
2022/05/25 01:35:19;;;;;;;;;1.00;1.00;;;;;14.61;58.58;101131.22;4995791;28;45403;-47
2022/05/25 01:38:06;;;;;;;;;3.00;1.00;;;;;14.61;59.14;101136.56;4995909;28;45483;-50
2022/05/25 01:40:34;;;;;;;;;1.67;1.67;;;;;14.62;59.43;101137.41;4996150;28;45490;-49
2022/05/25 01:43:10;;;;;;;;;1.00;1.00;;;;;14.61;59.01;101141.91;4995607;28;46261;-50
2022/05/25 01:45:44;;;;;;;;;1.00;1.00;;;;;14.62;59.07;101151.66;4995664;28;45479;-50
2022/05/25 01:48:11;;;;;;;;;1.00;1.00;;;;;14.47;59.11;101131.81;4995461;28;45547;-49
2022/05/25 01:50:55;;;;;;;;;1.00;1.00;;;;;14.58;58.92;101147.63;4995733;28;45616;-49
2022/05/25 01:53:26;;;;;;;;;1.67;0.67;;;;;14.59;58.90;101148.47;4995709;28;46236;-49
2022/05/25 01:55:57;;;;;;;;;2.00;1.00;;;;;14.57;59.28;101147.78;4995643;28;45284;-50
2022/05/25 01:58:24;;;;;;;;;2.00;2.00;;;;;14.57;59.22;101153.97;4995276;28;45558;-49
2022/05/25 02:00:52;;;;;;;;;2.33;1.00;;;;;14.56;59.54;101152.28;4995781;28;45553;-50
2022/05/25 02:06:20;;;;;;;;;2.00;1.00;;;;;14.54;59.88;101158.78;4995176;28;45440;-49
2022/05/25 02:09:13;;;;;;;;;2.00;1.00;;;;;14.48;59.45;101150.41;4995306;28;45344;-51
2022/05/25 02:11:44;;;;;;;;;1.00;1.00;;;;;14.50;59.65;101158.31;5032748;28;45319;-51
2022/05/25 02:14:37;;;;;;;;;1.00;1.00;;;;;14.49;60.03;101156.59;5057217;28;46160;-54
2022/05/25 02:17:26;;;;;;;;;1.33;1.00;;;;;14.47;60.29;101155.91;5057010;28;45450;-51
2022/05/25 02:20:06;;;;;;;;;1.00;1.00;;;;;14.45;59.88;101169.47;5057367;28;45373;-52
2022/05/25 02:22:42;;;;;;;;;1.00;1.00;;;;;14.44;60.35;101173.13;5056777;28;45465;-50
2022/05/25 02:25:45;;;;;;;;;0.67;0.67;;;;;14.42;59.61;101172.47;5057142;28;46360;-50
2022/05/25 02:28:23;;;;;;;;;1.00;1.00;;;;;14.40;59.62;101170.94;5057573;28;45335;-48
2022/05/25 02:30:53;;;;;;;;;0.00;0.00;;;;;14.36;60.31;101165.06;5057434;28;45321;-48
2022/05/25 02:33:30;;;;;;;;;3.00;1.00;;;;;14.36;60.03;101169.56;5057171;28;45427;-47
2022/05/25 02:35:58;;;;;;;;;1.00;1.00;;;;;14.36;60.24;101166.91;5056893;28;46232;-48
2022/05/25 02:38:24;;;;;;;;;1.00;1.00;;;;;14.35;61.14;101165.22;5056815;28;45416;-45
2022/05/25 02:40:50;;;;;;;;;2.67;1.00;;;;;14.34;60.83;101171.59;5057100;28;45326;-45
2022/05/25 02:43:15;;;;;;;;;1.00;1.00;;;;;14.30;61.00;101171.06;5057115;28;45491;-47
2022/05/25 02:45:42;;;;;;;;;2.00;1.00;;;;;14.33;61.07;101178.78;5056557;28;46313;-48
2022/05/25 02:48:07;;;;;;;;;3.67;1.00;;;;;14.31;60.96;101180.75;5056688;28;45392;-46
2022/05/25 02:50:33;;;;;;;;;1.00;1.00;;;;;14.29;61.03;101182.78;5056842;28;45296;-49
2022/05/25 02:52:58;;;;;;;;;2.67;2.00;;;;;14.29;61.01;101182.78;5057257;28;45241;-52
2022/05/25 02:55:24;;;;;;;;;1.00;1.00;;;;;14.28;60.95;101185.59;5056492;28;47184;-48
2022/05/25 02:57:49;;;;;;;;;1.00;1.00;;;;;14.27;61.10;101187.44;5038468;28;45964;-46
2022/05/25 03:00:15;;;;;;;;;1.67;1.67;;;;;14.25;61.24;101189.44;5056951;28;45405;-48
2022/05/25 03:02:41;;;;;;;;;1.00;1.00;;;;;14.24;61.12;101195.78;5056759;28;45552;-48
2022/05/25 03:05:09;;;;;;;;;1.33;1.33;;;;;14.21;61.18;101194.28;5056400;28;45299;-47
2022/05/25 03:07:35;;;;;;;;;1.00;1.00;;;;;14.21;61.48;101198.78;5056400;28;45424;-46
2022/05/25 03:10:01;;;;;;;;;1.00;1.00;;;;;14.19;61.39;101196.25;5056530;28;45241;-46
2022/05/25 03:12:27;;;;;;;;;1.00;1.00;;;;;14.15;61.36;101200.25;5056931;28;45479;-46
2022/05/25 03:14:52;;;;;;;;;1.00;1.00;;;;;14.18;61.67;101204.44;5056171;28;46035;-49
2022/05/25 03:17:17;;;;;;;;;2.00;1.00;;;;;14.16;61.54;101207.28;5056268;28;45369;-52
2022/05/25 03:19:50;;;;;;;;;0.67;0.67;;;;;14.15;60.97;101212.78;5056572;28;45434;-52
2022/05/25 03:22:15;;;;;;;;;1.00;1.00;;;;;14.15;62.09;101218.97;5054628;28;45515;-48
2022/05/25 03:24:40;;;;;;;;;0.33;0.33;;;;;14.13;61.62;101220.97;5056367;28;45924;-49
2022/05/25 03:27:06;;;;;;;;;1.00;1.00;;;;;14.13;61.91;101220.97;5056196;28;45354;-45
2022/05/25 03:29:32;;;;;;;;;0.00;0.00;;;;;14.11;61.73;101220.28;5055943;28;45626;-51
2022/05/25 03:31:57;;;;;;;;;1.00;1.00;;;;;14.12;62.06;101232.69;5056525;28;45452;-47
2022/05/25 03:34:23;;;;;;;;;0.33;0.33;;;;;14.06;61.90;101222.59;5057268;28;45539;-47
2022/05/25 03:36:48;;;;;;;;;2.00;1.00;;;;;14.10;61.64;101237.34;5059708;28;45524;-46
2022/05/25 03:39:14;;;;;;;;;1.00;1.00;;;;;14.05;61.80;101226.28;5059710;28;45621;-48
2022/05/25 03:41:40;;;;;;;;;2.67;1.00;;;;;14.08;62.17;101234.00;5059690;28;45400;-46
2022/05/25 03:44:06;;;;;;;;;1.00;1.00;;;;;14.06;62.22;101235.16;5059449;28;46188;-48
2022/05/25 03:46:32;;;;;;;;;0.67;0.67;;;;;14.04;62.14;101242.50;5059468;28;45310;-47
2022/05/25 03:48:57;;;;;;;;;1.00;1.00;;;;;14.03;62.55;101246.16;5059467;28;45291;-49
2022/05/25 03:51:23;;;;;;;;;2.00;1.00;;;;;14.03;62.31;101256.84;5059609;28;45534;-45
2022/05/25 03:53:49;;;;;;;;;3.33;1.67;;;;;14.01;62.21;101264.22;5059318;28;46003;-45
2022/05/25 03:56:15;;;;;;;;;2.00;2.00;;;;;14.01;62.47;101265.03;5041455;28;45539;-50
2022/05/25 03:58:43;;;;;;;;;1.00;1.00;;;;;14.01;62.23;101275.75;5059363;28;45459;-46
2022/05/25 04:01:08;;;;;;;;;1.00;1.00;;;;;14.01;62.64;101277.59;5041554;28;45470;-46
2022/05/25 04:03:34;;;;;;;;;0.00;0.00;;;;;13.97;62.20;101272.53;5059032;28;46302;-49
2022/05/25 04:05:59;;;;;;;;;2.00;0.00;;;;;14.00;62.79;101275.91;5058859;28;45500;-48
2022/05/25 04:08:25;;;;;;;;;2.00;1.00;;;;;14.00;62.25;101274.06;5059657;28;45251;-47
2022/05/25 04:10:50;;;;;;;;;1.33;1.33;;;;;13.95;62.56;101265.69;5059397;28;45202;-48
2022/05/25 04:13:17;;;;;;;;;1.00;1.00;;;;;14.00;62.47;101274.06;5041096;28;47284;-45
2022/05/25 04:15:42;;;;;;;;;1.00;1.00;;;;;13.98;62.90;101274.22;5059139;28;45678;-51
2022/05/25 04:18:07;;;;;;;;;1.33;1.33;;;;;14.00;63.08;101283.94;5059035;28;45354;-49
2022/05/25 04:20:33;;;;;;;;;1.00;1.00;;;;;14.00;62.98;101282.09;5059551;28;45364;-47
2022/05/25 04:22:59;;;;;;;;;1.00;1.00;;;;;14.03;62.52;101280.94;5057070;28;46290;-46
2022/05/25 04:25:26;;;;;;;;;2.00;1.00;;;;;14.02;62.59;101276.59;5059043;28;45381;-50
2022/05/25 04:27:53;;;;;;;;;3.33;2.00;;;;;13.92;62.37;101265.97;5058945;28;45362;-48
2022/05/25 04:30:23;;;;;;;;;3.67;1.67;;;;;14.02;62.76;101280.09;5059213;28;45183;-47
2022/05/25 04:32:48;;;;;;;;;1.00;1.00;;;;;13.92;62.57;101264.16;5058943;28;45413;-49
2022/05/25 04:35:16;;;;;;;;;1.67;1.67;;;;;14.02;62.14;101285.44;5058569;28;45466;-51
2022/05/25 04:37:54;;;;;;;;;3.33;1.67;;;;;13.97;62.24;101287.75;5058684;28;45481;-48
2022/05/25 04:40:30;;;;;;;;;1.00;1.00;;;;;14.02;62.39;101306.84;5058956;28;45299;-48
2022/05/25 04:42:58;;;;;;;;;1.00;1.00;;;;;14.02;62.41;101301.50;5058579;28;46402;-50
2022/05/25 04:45:27;;;;;;;;;2.00;2.00;;;;;14.02;62.16;101306.00;5058357;28;45413;-47
2022/05/25 04:47:54;;;;;;;;;1.00;1.00;;;;;14.04;62.33;101304.88;5058604;28;45234;-49
2022/05/25 04:50:22;;;;;;;;;1.33;1.33;;;;;14.01;62.36;101305.16;5058663;28;45427;-46
2022/05/25 04:52:47;;;;;;;;;1.67;1.67;;;;;14.06;62.03;101312.72;5055437;28;45492;-50
2022/05/25 04:57:19;;;;;;;;;2.67;1.67;;;;;14.00;61.82;101297.31;5058598;28;45357;-45
2022/05/25 04:58:01;;;;;;;;;6.67;3.00;;;;;14.11;62.15;101319.28;5051204;28;45270;-47
2022/05/25 05:00:27;;;;;;;;;2.00;2.00;;;;;14.14;61.79;101318.13;5058701;28;45321;-46
2022/05/25 05:02:53;;;;;;;;;2.67;2.67;;;;;14.15;61.98;101322.50;5058186;28;45592;-48
2022/05/25 05:05:19;;;;;;;;;1.00;1.00;;;;;14.17;61.96;101324.03;5059933;27;45291;-50
2022/05/25 05:07:45;;;;;;;;;3.00;3.00;;;;;14.19;61.52;101330.03;5078697;27;45317;-52
2022/05/25 05:10:12;;;;;;;;;2.67;1.33;;;;;14.22;61.37;101329.75;5079009;27;45357;-48
2022/05/25 05:12:38;;;;;;;;;4.00;2.00;;;;;14.20;61.21;101318.38;5078519;27;47403;-49
2022/05/25 05:15:04;;;;;;;;;5.33;2.00;;;;;14.27;61.06;101323.91;5078296;27;45339;-46
2022/05/25 05:17:30;;;;;;;;;2.67;1.33;;;;;14.31;60.96;101327.13;5078410;27;45304;-48
2022/05/25 05:19:56;;;;;;;;;1.67;1.67;;;;;14.22;60.78;101318.19;5078587;28;45257;-48
2022/05/25 05:22:22;;;;;;;;;2.33;2.33;;;;;14.35;60.54;101333.84;5077982;27;46354;-49
2022/05/25 05:24:47;;;;;;;;;2.00;2.00;;;;;14.38;60.37;101331.69;5078199;27;45522;-47
2022/05/25 05:27:12;;;;;;;;;3.00;1.67;;;;;14.41;60.48;101342.09;5078303;28;45426;-46
2022/05/25 05:29:38;;;;;;;;;3.00;2.00;;;;;14.45;59.75;101345.28;5078672;28;45433;-47
2022/05/25 05:32:04;;;;;;;;;1.33;1.33;;;;;14.46;59.95;101344.31;5078065;28;45949;-48
2022/05/25 05:34:30;;;;;;;;;4.00;2.00;;;;;14.48;60.02;101342.28;5078011;27;45263;-48
2022/05/25 05:36:58;;;;;;;;;3.00;3.00;;;;;14.55;59.96;101348.75;5078164;28;45320;-47
2022/05/25 05:39:28;;;;;;;;;3.67;2.00;;;;;14.57;59.50;101346.72;5078255;27;45464;-50
2022/05/25 05:42:03;;;;;;;;;2.00;2.00;;;;;14.60;59.99;101346.41;5077970;27;45341;-45
2022/05/25 05:44:32;;;;;;;;;2.33;2.33;;;;;14.58;60.11;101331.50;5077924;27;45335;-46
2022/05/25 05:47:00;;;;;;;;;2.67;2.67;;;;;14.65;59.96;101344.09;5078205;27;45353;-48
2022/05/25 05:49:26;;;;;;;;;2.33;2.00;;;;;14.68;59.88;101333.09;5078132;27;45360;-49
2022/05/25 05:51:52;;;;;;;;;5.00;3.00;;;;;14.72;59.70;101331.75;5077784;27;46362;-47
2022/05/25 05:54:18;;;;;;;;;3.00;3.00;;;;;14.76;59.87;101339.50;5077707;27;45306;-47
2022/05/25 05:56:44;;;;;;;;;4.33;3.00;;;;;14.78;59.60;101330.28;5077139;27;45334;-49
2022/05/25 05:59:11;;;;;;;;;3.00;3.00;;;;;14.81;59.63;101340.69;5077954;27;45392;-47
2022/05/25 06:01:36;;;;;;;;;4.33;4.33;;;;;14.85;59.32;101335.84;5077554;28;46275;-47
2022/05/25 06:04:02;;;;;;;;;2.00;2.00;;;;;14.88;59.25;101333.69;5077434;27;45411;-48
2022/05/25 06:06:27;;;;;;;;;3.00;3.00;;;;;14.91;59.05;101341.38;5077705;27;45649;-46
2022/05/25 06:08:53;;;;;;;;;1.00;1.00;;;;;14.98;58.81;101338.91;5077772;28;45350;-47
2022/05/25 06:11:20;;;;;;;;;2.67;1.00;;;;;14.89;57.81;101326.50;5076775;27;45573;-48
2022/05/25 06:13:46;;;;;;;;;2.00;1.00;;;;;15.03;57.58;101359.88;5077544;28;45456;-45
2022/05/25 06:21:39;;;;;;;;;0.00;0.00;;;;;15.15;56.84;101353.22;5077546;28;45913;-48
2022/05/25 06:24:05;;;;;;;;;2.00;0.33;;;;;15.22;56.57;101355.09;5077187;28;45427;-49
2022/05/25 06:26:32;;;;;;;;;1.00;1.00;;;;;15.30;55.81;101367.69;5077714;27;45375;-46
2022/05/25 06:29:01;;;;;;;;;1.00;1.00;;;;;15.40;55.88;101372.91;5077717;27;45369;-49
2022/05/25 06:31:28;;;;;;;;;0.33;0.33;;;;;15.53;55.71;101375.97;5077355;28;46257;-47
2022/05/25 06:33:54;;;;;;;;;1.33;1.00;;;;;15.68;55.53;101381.56;5077574;27;45471;-47
2022/05/25 06:36:23;;;;;;;;;1.00;1.00;;;;;15.86;54.94;101384.13;5077382;27;45299;-47
2022/05/25 06:38:48;;;;;;;;;4.00;2.67;;;;;16.09;54.54;101393.19;5077667;27;45345;-48
2022/05/25 06:41:14;;;;;;;;;0.33;0.33;;;;;16.35;53.72;101384.97;5077169;27;45265;-47
2022/05/25 06:43:40;;;;;;;;;0.00;0.00;;;;;16.68;52.95;101384.91;5077036;27;45210;-47
2022/05/25 06:46:07;;;;;;;;;2.00;2.00;;;;;17.26;52.62;101388.31;5077453;27;45233;-46
2022/05/25 06:48:33;;;;;;;;;1.00;1.00;;;;;18.73;48.32;101388.13;5077337;27;45484;-47
2022/05/25 06:51:08;;;;;;;;;0.33;0.33;;;;;20.94;46.18;101391.09;5076931;27;45756;-46
2022/05/25 06:53:34;;;;;;;;;2.00;1.00;;;;;23.11;39.12;101394.41;5077020;28;45346;-46
2022/05/25 06:55:59;;;;;;;;;2.00;0.75;;;;;24.86;35.72;101389.28;5077156;27;45339;-48
2022/05/25 06:58:24;;;;;;;;;2.25;0.00;;;;;26.03;34.83;101380.88;5077444;27;45296;-48
2022/05/25 07:00:50;;;;;;;;;2.00;2.00;;;;;26.62;32.74;101381.78;5076990;28;45319;-48
2022/05/25 07:03:15;;;;;;;;;1.00;1.00;;;;;26.73;33.89;101385.59;5077100;27;45293;-53
2022/05/25 07:05:40;;;;;;;;;3.75;2.75;;;;;26.64;32.63;101402.59;5076744;27;45303;-50
2022/05/25 07:08:06;;;;;;;;;2.50;1.00;;;;;26.72;32.33;101394.88;5078071;28;45356;-51
2022/05/25 07:10:31;;;;;;;;;0.75;0.75;;;;;27.14;31.72;101396.59;5080342;28;46003;-48
2022/05/25 07:12:57;;;;;;;;;4.00;1.00;;;;;27.59;34.42;101386.59;5080282;28;45368;-48
2022/05/25 07:15:22;;;;;;;;;0.75;0.75;;;;;28.29;30.20;101384.56;5080440;27;45308;-49
2022/05/25 07:17:48;;;;;;;;;1.75;1.50;;;;;29.37;29.87;101390.53;5080638;28;45325;-48
2022/05/25 07:20:14;;;;;;;;;0.00;0.00;;;;;30.53;27.44;101394.66;5080090;28;45406;-49
2022/05/25 07:22:40;;;;;;;;;1.25;1.25;;;;;31.69;27.46;101398.22;5080209;27;45286;-48
2022/05/25 07:25:06;;;;;;;;;3.00;1.00;;;;;32.36;24.71;101391.66;5080507;27;45543;-49
2022/05/25 07:27:32;;;;;;;;;1.00;1.00;;;;;33.41;25.33;101404.63;5080393;27;45422;-49
2022/05/25 07:29:57;;;;;;;;;1.00;1.00;;;;;34.33;24.16;101404.03;5080175;28;47027;-48
2022/05/25 07:32:23;;;;;;;;;1.00;1.00;;;;;35.23;22.45;101403.38;5080072;27;45469;-50
2022/05/25 07:35:02;;;;;;;;;1.75;1.75;;;;;35.85;21.84;101411.63;5080257;27;45352;-47
2022/05/25 07:37:33;;;;;;;;;2.00;2.00;;;;;36.42;20.03;101409.59;5080197;27;45421;-50
2022/05/25 07:40:19;;;;;;;;;0.80;0.80;;;;;36.61;20.30;101412.31;5079994;27;45495;-50
2022/05/25 07:42:48;;;;;;;;;0.00;0.00;;;;;36.53;19.94;101413.00;5079933;27;45328;-48
2022/05/25 07:45:14;;;;;;;;;0.40;0.00;;;;;36.26;20.32;101424.00;5080150;27;45353;-49
2022/05/25 07:47:39;;;;;;;;;1.50;1.50;;;;;35.89;20.68;101422.91;5080228;27;45311;-48
2022/05/25 07:50:06;;;;;;;;;1.00;0.00;;;;;35.63;20.64;101415.00;5079652;27;45587;-54
2022/05/25 07:52:35;;;;;;;;;0.00;0.00;;;;;35.54;21.62;101411.25;5080170;27;45237;-51
2022/05/25 07:55:02;;;;;;;;;0.00;0.00;;;;;35.54;21.16;101416.81;5079833;27;45427;-50
2022/05/25 07:57:28;;;;;;;;;0.00;0.00;;;;;35.52;19.64;101415.44;5080015;27;45430;-50
2022/05/25 07:59:53;;;;;;;;;0.40;0.40;;;;;35.75;21.85;101420.09;5079620;28;45428;-50
2022/05/25 08:05:58;;;;;;;;;0.00;0.00;;;;;35.89;20.95;101431.22;5079547;28;45387;-53
2022/05/25 08:08:24;;;;;;;;;0.00;0.00;;;;;36.21;21.71;101427.69;5078772;28;45449;-49
2022/05/25 08:11:11;;;;;;;;;1.00;0.00;;;;;37.46;19.02;101440.56;5079564;27;45376;-51
2022/05/25 08:13:41;;;;;;;;;0.00;0.00;;;;;38.93;17.64;101433.31;5079151;27;45359;-49
2022/05/25 08:16:08;;;;;;;;;0.00;0.00;;;;;40.09;18.10;101438.41;5079675;27;45404;-49
2022/05/25 08:18:34;;;;;;;;;0.00;0.00;;;;;41.00;15.65;101432.78;5079582;27;45451;-51
2022/05/25 08:20:59;;;;;;;;;4.00;0.00;;;;;39.35;16.72;101433.78;5077774;27;45295;-52
2022/05/25 08:23:25;;;;;;;;;2.00;0.75;;;;;38.46;17.51;101439.63;5079195;28;46187;-48
2022/05/25 08:25:50;;;;;;;;;0.75;0.00;;;;;38.43;16.75;101432.72;5079485;28;45332;-46
2022/05/25 08:28:15;;;;;;;;;1.00;0.00;;;;;39.44;16.05;101436.56;5079438;28;45448;-50
2022/05/25 08:30:44;;;;;;;;;0.75;0.00;;;;;40.27;16.53;101427.25;5079343;28;46332;-52
2022/05/25 08:33:11;;;;;;;;;0.80;0.80;;;;;40.83;15.34;101425.28;5079323;27;45378;-52
2022/05/25 08:35:36;;;;;;;;;0.00;0.00;;;;;41.26;15.45;101433.44;5079210;27;45304;-49
2022/05/25 08:38:02;;;;;;;;;0.00;0.00;;;;;42.25;14.74;101426.41;5079718;27;45281;-49
2022/05/25 08:40:30;;;;;;;;;0.20;0.20;;;;;43.09;13.38;101426.88;5079093;28;45428;-52
2022/05/25 08:43:04;;;;;;;;;0.00;0.00;;;;;43.03;14.75;101426.28;5079120;27;45427;-49
2022/05/25 08:45:42;;;;;;;;;0.00;0.00;;;;;42.86;14.18;101420.94;5079155;27;45533;-51
2022/05/25 08:48:11;;;;;;;;;1.40;0.00;;;;;43.99;13.00;101438.81;5079304;27;45394;-51
2022/05/25 08:50:37;;;;;;;;;0.00;0.00;;;;;44.76;14.09;101433.69;5078788;27;47496;-49
2022/05/25 08:53:05;;;;;;;;;1.40;0.00;;;;;45.32;11.85;101427.00;5078958;27;45509;-50
2022/05/25 08:55:44;;;;;;;;;0.00;0.00;;;;;45.87;10.88;101427.00;5079002;27;45329;-52
2022/05/25 08:58:12;;;;;;;;;0.20;0.20;;;;;46.36;12.05;101434.78;5078852;27;45488;-50
2022/05/25 09:00:39;;;;;;;;;0.00;0.00;;;;;46.18;11.55;101426.78;5078528;27;45814;-50
2022/05/25 09:03:18;;;;;;;;;0.00;0.00;;;;;46.01;12.02;101432.88;5078775;27;45418;-51
2022/05/25 09:05:59;;;;;;;;;0.00;0.00;;;;;46.01;12.53;101427.25;5078607;27;45498;-50
2022/05/25 09:08:53;;;;;;;;;0.40;0.00;;;;;42.87;13.86;101444.13;5077519;28;45653;-50
2022/05/25 09:11:32;;;;;;;;;0.00;0.00;;;;;42.82;13.85;101446.00;5077707;27;46219;-52
2022/05/25 09:14:04;;;;;;;;;0.00;0.00;;;;;44.03;12.11;101446.16;5078495;27;45382;-51
2022/05/25 09:16:32;;;;;;;;;0.00;0.00;;;;;45.02;11.54;101443.53;5078729;28;45327;-52
2022/05/25 09:19:03;;;;;;;;;0.00;0.00;;;;;45.42;12.20;101450.91;5078619;27;45348;-50
2022/05/25 09:21:43;;;;;;;;;0.00;0.00;;;;;46.03;10.08;101445.38;5078278;28;46316;-53
2022/05/25 09:24:16;;;;;;;;;1.00;1.00;;;;;46.31;11.26;101446.31;5078410;27;45316;-52
2022/05/25 09:26:43;;;;;;;;;0.00;0.00;;;;;46.40;11.03;101439.28;5078652;27;45416;-54
2022/05/25 09:29:09;;;;;;;;;1.00;0.80;;;;;46.73;11.06;101435.00;5078608;27;45467;-50
2022/05/25 09:31:43;;;;;;;;;0.00;0.00;;;;;46.64;10.59;101434.44;5076977;27;46194;-49
2022/05/25 09:34:16;;;;;;;;;0.00;0.00;;;;;46.98;10.14;101438.22;5077042;28;45356;-51
2022/05/25 09:36:50;;;;;;;;;0.00;0.00;;;;;47.26;10.50;101435.84;5078119;27;45323;-52
2022/05/25 09:39:26;;;;;;;;;0.80;0.80;;;;;47.62;9.73;101438.31;5078462;27;45490;-52
2022/05/25 09:41:59;;;;;;;;;0.00;0.00;;;;;47.87;8.86;101447.09;5078166;27;46441;-50
2022/05/25 09:44:26;;;;;;;;;0.00;0.00;;;;;48.11;8.62;101442.97;5078260;28;45404;-51
2022/05/25 09:46:59;;;;;;;;;0.40;0.00;;;;;48.34;8.65;101442.81;5076823;28;45531;-49
2022/05/25 09:49:48;;;;;;;;;0.00;0.00;;;;;48.47;9.33;101441.34;5078373;27;45640;-48
2022/05/25 09:52:21;;;;;;;;;0.00;0.00;;;;;48.41;9.06;101440.88;5055188;28;45504;-52
2022/05/25 09:55:01;;;;;;;;;0.80;0.00;;;;;48.54;8.74;101444.19;5055493;28;45446;-52
2022/05/25 09:57:31;;;;;;;;;0.00;0.00;;;;;48.50;8.02;101434.09;5038889;28;45540;-50
2022/05/25 10:00:00;;;;;;;;;0.80;0.00;;;;;48.48;10.15;101446.59;5055667;28;45442;-49
2022/05/25 10:02:37;;;;;;;;;0.20;0.00;;;;;48.25;9.26;101457.22;5055284;28;45349;-49
2022/05/25 10:05:14;;;;;;;;;0.00;0.00;;;;;48.24;8.79;101453.56;5055522;28;45303;-51
2022/05/25 10:07:49;;;;;;;;;0.40;0.00;;;;;48.13;9.19;101458.31;5055449;28;45451;-51
2022/05/25 10:10:22;;;;;;;;;0.00;0.00;;;;;48.06;9.56;101455.41;5055439;28;45395;-49
2022/05/25 10:13:01;;;;;;;;;0.00;0.00;;;;;47.76;8.64;101440.56;5053899;28;46127;-54
2022/05/25 10:15:36;;;;;;;;;1.20;1.20;;;;;47.63;9.67;101445.59;5055016;28;45338;-50
2022/05/25 10:18:04;;;;;;;;;0.20;0.20;;;;;47.62;9.76;101446.78;5055368;28;45406;-54
2022/05/25 10:20:34;;;;;;;;;2.60;2.60;;;;;47.45;9.56;101453.81;5055351;28;45525;-52
2022/05/25 10:23:05;;;;;;;;;6.00;4.00;;;;;47.16;9.56;101450.59;5054670;28;45568;-53
2022/05/25 10:25:52;;;;;;;;;2.80;2.80;;;;;45.94;10.10;101444.81;5055126;28;45464;-51
2022/05/25 10:28:26;;;;;;;;;1.40;1.00;;;;;44.78;10.62;101445.38;5057447;28;45406;-50
2022/05/25 10:37:08;;;;;;;;;20.00;18.00;;;;;44.58;10.76;101454.84;5077220;27;45399;-48
2022/05/25 10:39:41;;;;;;;;;3.00;1.40;;;;;44.72;10.67;101460.06;5077107;27;45270;-50
2022/05/25 10:42:25;;;;;;;;;0.20;0.20;;;;;44.43;10.81;101452.88;5077518;28;45361;-49
2022/05/25 10:44:59;;;;;;;;;1.00;0.00;;;;;44.06;10.80;101453.84;5077079;27;46096;-52
2022/05/25 10:47:49;;;;;;;;;0.00;0.00;;;;;43.39;11.00;101443.41;5077057;28;45498;-52
2022/05/25 10:50:35;;;;;;;;;0.00;0.00;;;;;42.65;11.05;101439.78;5092934;27;45333;-51
2022/05/25 10:53:13;;;;;;;;;0.20;0.20;;;;;41.25;12.00;101456.09;5077400;27;45533;-53
2022/05/25 10:55:58;;;;;;;;;0.00;0.00;;;;;40.26;12.54;101456.28;5077142;27;47244;-54
2022/05/25 10:58:40;;;;;;;;;0.00;0.00;;;;;38.24;13.92;101440.44;5077233;27;45294;-53
2022/05/25 11:01:27;;;;;;;;;0.00;0.00;;;;;36.37;15.26;101445.72;5077308;27;45401;-51
2022/05/25 11:04:20;;;;;;;;;0.00;0.00;;;;;34.52;16.79;101440.06;5077332;27;45366;-50
2022/05/25 11:07:15;;;;;;;;;0.00;0.00;;;;;32.92;17.97;101445.91;5076766;28;45581;-53
2022/05/25 11:10:01;;;;;;;;;0.00;0.00;;;;;31.62;19.49;101459.00;5077051;27;45438;-50
2022/05/25 11:12:35;;;;;;;;;0.00;0.00;;;;;30.57;19.81;101465.25;5077148;27;45306;-53
2022/05/25 11:15:13;;;;;;;;;0.00;0.00;;;;;29.76;20.60;101464.47;5077169;27;45497;-53
2022/05/25 11:18:09;;;;;;;;;0.00;0.00;;;;;28.88;21.91;101469.81;5076819;27;46177;-52
2022/05/25 11:20:44;;;;;;;;;0.00;0.00;;;;;28.35;21.75;101439.16;5076946;28;45415;-48
2022/05/25 11:23:31;;;;;;;;;0.40;0.40;;;;;27.88;22.26;101462.34;5076942;27;45434;-51
2022/05/25 11:26:17;;;;;;;;;0.00;0.00;;;;;27.29;23.27;101462.50;5077058;27;45318;-49
2022/05/25 11:29:00;;;;;;;;;1.00;0.00;;;;;27.05;24.50;101459.78;5076782;27;45360;-51
2022/05/25 11:31:36;;;;;;;;;0.40;0.40;;;;;26.80;24.54;101440.06;5076677;28;45311;-50
2022/05/25 11:34:23;;;;;;;;;3.00;0.00;;;;;26.71;24.84;101455.97;5076980;27;45274;-49
2022/05/25 11:37:07;;;;;;;;;2.00;0.00;;;;;26.55;24.48;101457.50;5076903;27;45268;-51
2022/05/25 11:40:01;;;;;;;;;0.80;0.00;;;;;26.68;24.61;101466.53;5076496;28;46062;-52
2022/05/25 11:43:18;;;;;;;;;0.00;0.00;;;;;26.67;24.27;101462.97;5076640;28;45430;-50
2022/05/25 11:45:46;;;;;;;;;1.60;0.00;;;;;26.44;24.78;101463.78;5054460;28;45475;-49
2022/05/25 11:48:35;;;;;;;;;0.00;0.00;;;;;26.31;24.50;101464.78;5054243;28;45546;-50
2022/05/25 11:51:14;;;;;;;;;0.60;0.60;;;;;26.21;25.72;101460.94;5054084;28;45461;-50
2022/05/25 11:53:57;;;;;;;;;0.60;0.60;;;;;25.87;25.35;101463.31;5054053;28;45314;-52
2022/05/25 11:56:35;;;;;;;;;1.20;0.80;;;;;25.54;26.13;101466.47;5057124;28;45422;-49
2022/05/25 11:59:25;;;;;;;;;0.00;0.00;;;;;25.58;26.15;101463.06;5057604;28;45310;-50
2022/05/25 12:02:12;;;;;;;;;1.60;1.60;;;;;25.71;26.59;101461.22;5057348;28;45385;-51
2022/05/25 12:04:56;;;;;;;;;0.00;0.00;;;;;25.86;26.32;101458.94;5056590;28;45613;-50
2022/05/25 12:07:58;;;;;;;;;0.00;0.00;;;;;25.73;26.06;101462.63;5057083;28;45461;-52
2022/05/25 12:10:27;;;;;;;;;0.00;0.00;;;;;25.69;26.65;101458.72;5057621;28;45614;-48